Time;durP1;ratioP1;P1;durP2;ratioP2;P2;SDS_P1;SDS_P2;PMS_P1;PMS_P2;Temp;Humidity;BMP_temperature;BMP_pressure;BME280_temperature;BME280_humidity;BME280_pressure;Samples;Min_cycle;Max_cycle;Signal;HPM_P1;HPM_P2
2023/09/10 00:00:57;;;;;;;;;;;;;;;18.97;44.44;100039.50;3149973;28;20294;-68
2023/09/10 00:02:29;;;;;;;;;;;;;;;18.93;44.65;100027.47;3157040;28;19924;-68
2023/09/10 00:03:59;;;;;;;;;;;;;;;18.90;44.75;100035.63;3145706;28;20001;-68
2023/09/10 00:05:31;;;;;;;;;;;;;;;18.88;44.69;100034.94;3141105;28;19924;-66
2023/09/10 00:07:03;;;;;;;;;;;;;;;18.84;44.79;100035.16;3145098;28;19985;-66
2023/09/10 00:08:35;;;;;;;;;;;;;;;18.84;44.70;100027.25;3145540;28;19929;-67
2023/09/10 00:10:06;;;;;;;;;;;;;;;18.83;44.77;100033.47;3146052;28;19997;-67
2023/09/10 00:11:38;;;;;;;;;;;;;;;18.85;44.73;100038.63;3155275;28;20014;-67
2023/09/10 00:13:09;;;;;;;;;;;;;;;18.89;44.73;100032.16;3149401;28;20013;-66
2023/09/10 00:14:40;;;;;;;;;;;;;;;18.92;44.66;100026.66;3153494;28;20347;-71
2023/09/10 00:16:12;;;;;;;;;;;;;;;18.94;44.80;100029.19;3146511;28;20424;-71
2023/09/10 00:17:42;;;;;;;;;;;;;;;18.94;44.70;100034.47;3152310;28;19924;-71
2023/09/10 00:19:15;;;;;;;;;;;;;;;18.94;44.60;100029.19;3152650;28;19924;-70
2023/09/10 00:20:46;;;;;;;;;;;;;;;18.93;44.63;100035.41;3143406;28;19989;-70
2023/09/10 00:22:19;;;;;;;;;;;;;;;18.91;44.90;100032.06;3145846;28;20027;-70
2023/09/10 00:23:49;;;;;;;;;;;;;;;18.89;44.89;100028.69;3139223;28;19977;-70
2023/09/10 00:25:21;;;;;;;;;;;;;;;18.83;45.03;100030.81;3157893;28;20116;-68
2023/09/10 00:26:52;;;;;;;;;;;;;;;18.83;44.86;100038.72;3158298;28;19924;-68
2023/09/10 00:28:23;;;;;;;;;;;;;;;18.84;44.90;100035.16;3158204;28;19924;-71
2023/09/10 00:29:55;;;;;;;;;;;;;;;18.85;44.98;100038.63;3154359;28;19924;-70
2023/09/10 00:31:25;;;;;;;;;;;;;;;18.82;45.11;100034.44;3148676;28;19928;-69
2023/09/10 00:32:57;;;;;;;;;;;;;;;18.79;45.23;100033.81;3145719;28;20451;-69
2023/09/10 00:34:29;;;;;;;;;;;;;;;18.78;45.21;100030.34;3145117;28;19928;-69
2023/09/10 00:36:01;;;;;;;;;;;;;;;18.78;45.15;100035.63;3137401;28;19950;-69
2023/09/10 00:37:34;;;;;;;;;;;;;;;18.78;45.31;100030.34;3142150;28;20009;-69
2023/09/10 00:39:04;;;;;;;;;;;;;;;18.78;45.13;100025.06;3145401;28;20318;-69
2023/09/10 00:40:36;;;;;;;;;;;;;;;18.78;45.31;100034.75;3152805;28;19930;-69
2023/09/10 00:42:06;;;;;;;;;;;;;;;18.79;45.21;100037.31;3151493;28;19924;-69
2023/09/10 00:43:38;;;;;;;;;;;;;;;18.80;45.21;100031.06;3150932;28;19997;-69
2023/09/10 00:45:10;;;;;;;;;;;;;;;18.83;45.16;100029.97;3148208;28;20357;-69
2023/09/10 00:46:41;;;;;;;;;;;;;;;18.84;45.12;100032.53;3145322;28;19981;-69
2023/09/10 00:48:12;;;;;;;;;;;;;;;18.81;45.33;100024.84;3145263;28;20325;-69
2023/09/10 00:49:44;;;;;;;;;;;;;;;18.81;45.29;100029.25;3145387;28;19929;-69
2023/09/10 00:51:14;;;;;;;;;;;;;;;18.79;45.39;100025.91;3135893;28;20390;-69
2023/09/10 00:52:50;;;;;;;;;;;;;;;18.81;45.29;100032.75;3145413;28;19939;-69
2023/09/10 00:54:21;;;;;;;;;;;;;;;18.85;45.44;100028.06;3145569;28;20015;-71
2023/09/10 00:55:53;;;;;;;;;;;;;;;18.84;45.24;100019.34;3158410;28;19928;-71
2023/09/10 00:57:24;;;;;;;;;;;;;;;18.88;45.17;100019.94;3145190;28;19925;-70
2023/09/10 00:58:56;;;;;;;;;;;;;;;18.91;45.30;100021.50;3154481;28;19924;-69
2023/09/10 01:00:27;;;;;;;;;;;;;;;18.93;45.08;100022.19;3143261;28;20026;-68
2023/09/10 01:01:59;;;;;;;;;;;;;;;18.94;45.11;100023.91;3143185;28;19982;-69
2023/09/10 01:03:30;;;;;;;;;;;;;;;18.93;45.07;100023.06;3145166;28;19935;-72
2023/09/10 01:05:03;;;;;;;;;;;;;;;18.91;45.15;100018.84;3144315;28;19928;-69
2023/09/10 01:06:35;;;;;;;;;;;;;;;18.85;45.33;100020.16;3140391;28;19973;-69
2023/09/10 01:08:07;;;;;;;;;;;;;;;18.77;45.57;100020.72;3145335;28;20015;-68
2023/09/10 01:09:38;;;;;;;;;;;;;;;18.70;45.72;100022.13;3151541;28;19924;-68
2023/09/10 01:11:17;;;;;;;;;;;;;;;18.62;45.89;100017.44;3157587;28;20000;-68
2023/09/10 01:12:53;;;;;;;;;;;;;;;18.55;45.96;100023.28;3157665;28;19947;-68
2023/09/10 01:14:28;;;;;;;;;;;;;;;18.49;46.17;100019.31;3153366;28;19924;-68
2023/09/10 01:16:02;;;;;;;;;;;;;;;18.48;46.23;100024.69;3152411;28;19925;-68
2023/09/10 01:17:36;;;;;;;;;;;;;;;18.40;46.56;100014.72;3150024;28;19924;-69
2023/09/10 01:19:11;;;;;;;;;;;;;;;18.38;46.60;100009.56;3153187;28;19924;-68
2023/09/10 01:20:47;;;;;;;;;;;;;;;18.38;46.44;100014.00;3142664;28;19924;-68
2023/09/10 01:22:25;;;;;;;;;;;;;;;18.38;46.57;100011.34;3149007;28;19928;-68
2023/09/10 01:24:08;;;;;;;;;;;;;;;18.39;46.52;100011.22;3153707;28;19951;-68
2023/09/10 01:25:41;;;;;;;;;;;;;;;18.38;46.46;100006.91;3144983;28;19925;-68
2023/09/10 01:27:13;;;;;;;;;;;;;;;18.40;46.58;100012.09;3149087;28;20308;-69
2023/09/10 01:28:44;;;;;;;;;;;;;;;18.38;46.65;100006.09;3149900;28;20321;-69
2023/09/10 01:30:15;;;;;;;;;;;;;;;18.38;46.52;100011.34;3145210;28;19925;-68
2023/09/10 01:31:50;;;;;;;;;;;;;;;18.37;46.40;100004.41;3144908;28;19928;-68
2023/09/10 01:33:23;;;;;;;;;;;;;;;18.38;46.41;100004.28;3146371;28;19929;-68
2023/09/10 01:34:57;;;;;;;;;;;;;;;18.40;46.41;100007.66;3148051;28;19964;-68
2023/09/10 01:36:31;;;;;;;;;;;;;;;18.42;46.46;100004.88;3133743;28;19925;-68
2023/09/10 01:38:06;;;;;;;;;;;;;;;18.44;46.14;100008.25;3160719;28;19988;-68
2023/09/10 01:39:40;;;;;;;;;;;;;;;18.44;46.12;100003.00;3135856;28;19929;-68
2023/09/10 01:41:14;;;;;;;;;;;;;;;18.45;46.14;100011.72;3159817;28;20340;-69
2023/09/10 01:42:45;;;;;;;;;;;;;;;18.45;46.21;100006.47;3147846;28;19925;-67
2023/09/10 01:44:17;;;;;;;;;;;;;;;18.44;46.16;100010.06;3147288;28;19928;-68
2023/09/10 01:45:48;;;;;;;;;;;;;;;18.41;46.08;100006.69;3158155;28;20305;-68
2023/09/10 01:47:20;;;;;;;;;;;;;;;18.41;46.12;100013.75;3150397;28;19938;-68
2023/09/10 01:48:52;;;;;;;;;;;;;;;18.33;46.27;100006.41;3147043;28;19935;-68
2023/09/10 01:50:22;;;;;;;;;;;;;;;18.26;46.49;100005.19;3143371;28;20424;-68
2023/09/10 01:51:54;;;;;;;;;;;;;;;18.18;46.65;100005.75;3141987;28;19925;-71
2023/09/10 01:53:24;;;;;;;;;;;;;;;18.14;46.72;100006.94;3153547;28;20325;-70
2023/09/10 01:54:56;;;;;;;;;;;;;;;18.12;46.82;100008.00;3154647;28;19925;-70
2023/09/10 01:56:29;;;;;;;;;;;;;;;18.09;46.76;100005.59;3147474;28;19928;-70
2023/09/10 01:57:59;;;;;;;;;;;;;;;18.02;46.85;100007.00;3151391;28;19924;-71
2023/09/10 01:59:31;;;;;;;;;;;;;;;17.98;46.77;100001.09;3159609;28;20172;-70
2023/09/10 02:01:02;;;;;;;;;;;;;;;17.94;47.11;100002.28;3148366;28;19928;-71
2023/09/10 02:02:34;;;;;;;;;;;;;;;17.91;46.96;99997.22;3149133;28;19932;-70
2023/09/10 02:04:05;;;;;;;;;;;;;;;17.92;46.94;100001.53;3159348;28;19924;-71
2023/09/10 02:05:36;;;;;;;;;;;;;;;17.89;46.97;99999.97;3141816;28;19925;-71
2023/09/10 02:07:07;;;;;;;;;;;;;;;17.86;47.10;100000.19;3147445;28;19978;-68
2023/09/10 02:08:38;;;;;;;;;;;;;;;17.84;47.14;100001.28;3159245;28;19924;-70
2023/09/10 02:10:09;;;;;;;;;;;;;;;17.80;47.05;99999.78;3159679;28;19931;-71
2023/09/10 02:11:43;;;;;;;;;;;;;;;17.79;47.30;100006.84;3149236;28;19977;-70
2023/09/10 02:13:13;;;;;;;;;;;;;;;17.73;47.40;100007.28;3156685;28;20019;-71
2023/09/10 02:14:48;;;;;;;;;;;;;;;17.66;47.47;100003.41;3150972;28;19924;-71
2023/09/10 02:16:19;;;;;;;;;;;;;;;17.62;47.75;100004.56;3147102;28;19929;-70
2023/09/10 02:17:50;;;;;;;;;;;;;;;17.59;47.76;100007.41;3147129;28;19925;-71
2023/09/10 02:19:21;;;;;;;;;;;;;;;17.55;47.78;100003.31;3153652;28;19932;-71
2023/09/10 02:20:53;;;;;;;;;;;;;;;17.55;47.59;100005.94;3149611;28;19924;-72
2023/09/10 02:22:23;;;;;;;;;;;;;;;17.56;47.73;100010.25;3146888;28;20361;-71
2023/09/10 02:23:55;;;;;;;;;;;;;;;17.56;47.38;100007.63;3151162;28;19936;-71
2023/09/10 02:25:25;;;;;;;;;;;;;;;17.58;47.61;100011.00;3159839;28;20462;-71
2023/09/10 02:26:58;;;;;;;;;;;;;;;17.60;47.45;100014.34;3154512;28;19928;-71
2023/09/10 02:28:29;;;;;;;;;;;;;;;17.62;47.31;100018.56;3159721;28;19931;-71
2023/09/10 02:30:00;;;;;;;;;;;;;;;17.64;47.31;100005.28;3159892;28;19924;-71
2023/09/10 02:31:31;;;;;;;;;;;;;;;17.65;47.13;100007.81;3150333;28;19935;-72
2023/09/10 02:33:04;;;;;;;;;;;;;;;17.67;47.07;100012.97;3146555;28;19924;-71
2023/09/10 02:34:34;;;;;;;;;;;;;;;17.66;47.27;100014.78;3152227;28;19924;-71
2023/09/10 02:36:06;;;;;;;;;;;;;;;17.67;47.01;100015.63;3138771;28;19925;-71
2023/09/10 02:37:37;;;;;;;;;;;;;;;17.67;47.03;100015.63;3144828;28;20377;-71
2023/09/10 02:39:09;;;;;;;;;;;;;;;17.67;47.03;100019.09;3155951;28;19931;-71
2023/09/10 02:40:39;;;;;;;;;;;;;;;17.67;46.96;100012.97;3151099;28;19929;-71
2023/09/10 02:42:12;;;;;;;;;;;;;;;17.69;46.86;100021.63;3153949;28;20370;-71
2023/09/10 02:43:43;;;;;;;;;;;;;;;17.71;46.90;100022.34;3153072;28;19932;-71
2023/09/10 02:45:15;;;;;;;;;;;;;;;17.73;46.83;100023.06;3152247;28;19924;-71
2023/09/10 02:46:46;;;;;;;;;;;;;;;17.74;46.94;100019.47;3154530;28;20367;-71
2023/09/10 02:48:17;;;;;;;;;;;;;;;17.74;46.90;100017.69;3150628;28;20019;-70
2023/09/10 02:49:48;;;;;;;;;;;;;;;17.71;46.77;100014.44;3156518;28;20324;-70
2023/09/10 02:51:20;;;;;;;;;;;;;;;17.69;47.15;100011.94;3139422;28;19931;-70
2023/09/10 02:52:50;;;;;;;;;;;;;;;17.66;46.96;100008.69;3158323;28;20384;-70
2023/09/10 02:54:23;;;;;;;;;;;;;;;17.64;47.13;100015.84;3146750;28;21452;-71
2023/09/10 02:56:00;;;;;;;;;;;;;;;17.62;47.18;100015.09;3155192;28;19924;-70
2023/09/10 02:57:33;;;;;;;;;;;;;;;17.59;47.17;100013.50;3134562;28;20449;-70
2023/09/10 02:59:04;;;;;;;;;;;;;;;17.54;47.18;100020.91;3134592;28;19932;-69
2023/09/10 03:00:35;;;;;;;;;;;;;;;17.50;47.32;100016.81;3151990;28;19925;-69
2023/09/10 03:02:06;;;;;;;;;;;;;;;17.48;47.44;100003.75;3145310;28;20028;-69
2023/09/10 03:03:37;;;;;;;;;;;;;;;17.45;47.65;100016.28;3147022;28;19924;-68
2023/09/10 03:05:08;;;;;;;;;;;;;;;17.41;47.66;100010.38;3152609;28;19982;-69
2023/09/10 03:06:39;;;;;;;;;;;;;;;17.36;48.02;100011.66;3142488;28;19924;-68
2023/09/10 03:08:10;;;;;;;;;;;;;;;17.32;47.95;100015.47;3151491;28;19924;-68
2023/09/10 03:09:42;;;;;;;;;;;;;;;17.32;47.87;100010.19;3147125;28;19939;-68
2023/09/10 03:11:12;;;;;;;;;;;;;;;17.31;47.99;100019.06;3146683;28;19931;-68
2023/09/10 03:12:45;;;;;;;;;;;;;;;17.30;48.29;100015.56;3151411;28;19977;-68
2023/09/10 03:14:16;;;;;;;;;;;;;;;17.28;48.00;100020.09;3154794;28;20313;-68
2023/09/10 03:15:48;;;;;;;;;;;;;;;17.27;48.12;100018.41;3146483;28;19928;-69
2023/09/10 03:17:19;;;;;;;;;;;;;;;17.28;48.16;100028.00;3148805;28;19932;-68
2023/09/10 03:18:50;;;;;;;;;;;;;;;17.26;48.21;100019.34;3159052;28;19928;-69
2023/09/10 03:20:21;;;;;;;;;;;;;;;17.26;48.29;100020.19;3153184;28;20003;-68
2023/09/10 03:21:52;;;;;;;;;;;;;;;17.27;48.00;100023.66;3158980;28;19967;-68
2023/09/10 03:23:24;;;;;;;;;;;;;;;17.29;48.14;100027.88;3159360;28;20328;-69
2023/09/10 03:24:54;;;;;;;;;;;;;;;17.32;47.89;100024.19;3156153;28;19943;-68
2023/09/10 03:26:26;;;;;;;;;;;;;;;17.35;48.06;100023.16;3146515;28;19925;-68
2023/09/10 03:27:58;;;;;;;;;;;;;;;17.36;47.98;100017.78;3146711;28;20381;-68
2023/09/10 03:29:32;;;;;;;;;;;;;;;17.35;48.02;100023.16;3154865;28;20007;-70
2023/09/10 03:31:03;;;;;;;;;;;;;;;17.36;47.66;100025.69;3152798;28;20026;-71
2023/09/10 03:32:34;;;;;;;;;;;;;;;17.38;47.72;100021.13;3154255;28;19924;-69
2023/09/10 03:34:05;;;;;;;;;;;;;;;17.40;47.79;100019.25;3151601;28;19924;-67
2023/09/10 03:35:36;;;;;;;;;;;;;;;17.43;47.58;100020.81;3141426;28;19944;-70
2023/09/10 03:37:08;;;;;;;;;;;;;;;17.41;47.76;100020.91;3139602;28;19925;-70
2023/09/10 03:38:39;;;;;;;;;;;;;;;17.41;47.77;100020.91;3147060;28;20342;-69
2023/09/10 03:40:11;;;;;;;;;;;;;;;17.37;47.87;100010.72;3153287;28;19925;-68
2023/09/10 03:41:41;;;;;;;;;;;;;;;17.40;47.85;100021.03;3152074;28;19932;-69
2023/09/10 03:43:15;;;;;;;;;;;;;;;17.38;47.86;100015.03;3152237;28;19928;-68
2023/09/10 03:44:46;;;;;;;;;;;;;;;17.38;47.77;100017.66;3152036;28;19932;-69
2023/09/10 03:46:17;;;;;;;;;;;;;;;17.39;47.80;100014.06;3149743;28;20442;-69
2023/09/10 03:47:48;;;;;;;;;;;;;;;17.37;47.94;100013.34;3147377;28;19932;-67
2023/09/10 03:49:20;;;;;;;;;;;;;;;17.35;47.83;100021.34;3153954;28;19928;-68
2023/09/10 03:50:50;;;;;;;;;;;;;;;17.34;47.83;100019.69;3150598;28;19928;-68
2023/09/10 03:52:22;;;;;;;;;;;;;;;17.33;47.80;100030.28;3149975;28;19933;-69
2023/09/10 03:53:53;;;;;;;;;;;;;;;17.30;47.73;100023.44;3149961;28;20015;-70
2023/09/10 03:55:25;;;;;;;;;;;;;;;17.27;47.87;100024.53;3145952;28;20390;-67
2023/09/10 03:56:55;;;;;;;;;;;;;;;17.23;47.96;100020.41;3153255;28;19974;-69
2023/09/10 03:58:28;;;;;;;;;;;;;;;17.22;47.79;100021.38;3152407;28;19928;-69
2023/09/10 04:00:00;;;;;;;;;;;;;;;17.23;47.73;100025.66;3151154;28;20313;-67
2023/09/10 04:01:30;;;;;;;;;;;;;;;17.22;48.05;100026.63;3147095;28;19994;-69
2023/09/10 04:03:02;;;;;;;;;;;;;;;17.19;47.80;100018.13;3154504;28;20007;-72
2023/09/10 04:04:33;;;;;;;;;;;;;;;17.17;48.01;100022.63;3145729;28;19975;-71
2023/09/10 04:06:04;;;;;;;;;;;;;;;17.13;48.00;100029.91;3140784;28;19931;-69
2023/09/10 04:07:35;;;;;;;;;;;;;;;17.14;47.94;100028.09;3156902;28;19949;-69
2023/09/10 04:09:07;;;;;;;;;;;;;;;17.14;48.02;100028.94;3145922;28;19928;-69
2023/09/10 04:10:38;;;;;;;;;;;;;;;17.16;48.04;100031.47;3157342;28;19928;-73
2023/09/10 04:12:09;;;;;;;;;;;;;;;17.18;48.23;100034.84;3147867;28;20021;-73
2023/09/10 04:13:42;;;;;;;;;;;;;;;17.17;48.08;100038.41;3148122;28;20019;-72
2023/09/10 04:15:13;;;;;;;;;;;;;;;17.19;47.96;100036.53;3144632;28;19982;-72
2023/09/10 04:16:44;;;;;;;;;;;;;;;17.22;47.94;100034.53;3146843;28;19925;-75
2023/09/10 04:18:15;;;;;;;;;;;;;;;17.27;47.83;100040.31;3154108;28;19978;-68
2023/09/10 04:19:47;;;;;;;;;;;;;;;17.32;47.65;100042.63;3149940;28;20059;-69
2023/09/10 04:21:17;;;;;;;;;;;;;;;17.36;47.47;100049.38;3139257;28;19924;-69
2023/09/10 04:22:49;;;;;;;;;;;;;;;17.38;47.71;100047.47;3150087;28;20019;-68
2023/09/10 04:24:19;;;;;;;;;;;;;;;17.39;47.85;100043.91;3151537;28;19975;-70
2023/09/10 04:25:51;;;;;;;;;;;;;;;17.39;47.73;100043.91;3158340;28;19931;-70
2023/09/10 04:27:22;;;;;;;;;;;;;;;17.42;47.62;100048.06;3158249;28;20329;-70
2023/09/10 04:28:55;;;;;;;;;;;;;;;17.39;47.68;100049.16;3158290;28;19928;-70
2023/09/10 04:30:25;;;;;;;;;;;;;;;17.37;47.63;100053.69;3157626;28;19924;-69
2023/09/10 04:31:57;;;;;;;;;;;;;;;17.32;47.93;100052.31;3145561;28;19935;-69
2023/09/10 04:33:28;;;;;;;;;;;;;;;17.26;48.05;100054.41;3147635;28;20003;-69
2023/09/10 04:34:59;;;;;;;;;;;;;;;17.24;47.98;100055.47;3148607;28;19925;-68
2023/09/10 04:36:30;;;;;;;;;;;;;;;17.24;48.17;100058.09;3136428;28;19925;-68
2023/09/10 04:38:02;;;;;;;;;;;;;;;17.21;48.31;100053.88;3145659;28;19929;-71
2023/09/10 04:39:32;;;;;;;;;;;;;;;17.21;48.40;100053.88;3158138;28;19985;-69
2023/09/10 04:41:04;;;;;;;;;;;;;;;17.18;48.38;100045.34;3146679;28;19983;-71
2023/09/10 04:42:34;;;;;;;;;;;;;;;17.19;48.54;100047.91;3145268;28;19996;-72
2023/09/10 04:44:07;;;;;;;;;;;;;;;17.15;48.75;100062.19;3145341;28;19932;-78
2023/09/10 04:45:38;;;;;;;;;;;;;;;17.08;48.76;100053.03;3145663;28;19932;-79
2023/09/10 04:47:10;;;;;;;;;;;;;;;17.06;48.77;100055.78;3153960;28;19980;-73
2023/09/10 04:48:40;;;;;;;;;;;;;;;17.04;48.98;100057.69;3150447;28;20013;-72
2023/09/10 04:50:12;;;;;;;;;;;;;;;17.06;48.81;100054.94;3143496;28;20324;-77
2023/09/10 04:51:43;;;;;;;;;;;;;;;17.11;48.87;100058.09;3140747;28;19929;-73
2023/09/10 04:53:15;;;;;;;;;;;;;;;17.19;48.68;100057.59;3143916;28;20007;-72
2023/09/10 04:54:45;;;;;;;;;;;;;;;17.24;48.36;100051.06;3137841;28;19924;-71
2023/09/10 04:56:17;;;;;;;;;;;;;;;17.30;48.33;100052.41;3157276;28;20432;-68
2023/09/10 04:57:48;;;;;;;;;;;;;;;17.32;48.36;100047.88;3146921;28;19924;-70
2023/09/10 04:59:21;;;;;;;;;;;;;;;17.32;48.39;100047.03;3145328;28;19947;-69
2023/09/10 05:00:52;;;;;;;;;;;;;;;17.28;48.47;100043.78;3147603;28;19931;-67
2023/09/10 05:02:23;;;;;;;;;;;;;;;17.27;48.56;100047.34;3153150;28;19932;-66
2023/09/10 05:03:54;;;;;;;;;;;;;;;17.26;48.41;100048.31;3158534;28;19924;-68
2023/09/10 05:05:25;;;;;;;;;;;;;;;17.27;48.62;100055.25;3149437;28;19931;-70
2023/09/10 05:06:57;;;;;;;;;;;;;;;17.26;48.55;100053.56;3138880;28;19928;-71
2023/09/10 05:08:29;;;;;;;;;;;;;;;17.25;48.45;100046.63;3150505;28;19928;-70
2023/09/10 05:09:59;;;;;;;;;;;;;;;17.24;48.39;100055.47;3157571;28;19947;-70
2023/09/10 05:11:31;;;;;;;;;;;;;;;17.22;48.61;100054.75;3152040;28;19943;-74
2023/09/10 05:13:02;;;;;;;;;;;;;;;17.25;48.43;100055.38;3150015;28;19935;-75
2023/09/10 05:14:35;;;;;;;;;;;;;;;17.31;48.44;100048.00;3149153;28;19934;-64
2023/09/10 05:16:05;;;;;;;;;;;;;;;17.37;48.35;100051.06;3148914;28;19924;-73
2023/09/10 05:17:38;;;;;;;;;;;;;;;17.43;48.25;100041.88;3145418;28;19962;-79
2023/09/10 05:19:09;;;;;;;;;;;;;;;17.50;48.14;100046.59;3149936;28;19974;-77
2023/09/10 05:20:40;;;;;;;;;;;;;;;17.53;47.98;100040.28;3151145;28;20361;-76
2023/09/10 05:22:11;;;;;;;;;;;;;;;17.55;48.16;100048.09;3157473;28;19936;-72
2023/09/10 05:23:44;;;;;;;;;;;;;;;17.58;48.22;100042.59;3156853;28;19928;-81
2023/09/10 05:25:15;;;;;;;;;;;;;;;17.61;48.13;100052.91;3145172;28;19928;-71
2023/09/10 05:26:46;;;;;;;;;;;;;;;17.62;48.07;100046.69;3145964;28;19985;-73
2023/09/10 05:28:17;;;;;;;;;;;;;;;17.63;47.98;100046.59;3157601;28;19981;-71
2023/09/10 05:29:50;;;;;;;;;;;;;;;17.63;47.95;100041.34;3145541;28;20254;-77
2023/09/10 05:31:22;;;;;;;;;;;;;;;17.65;47.84;100047.31;3148149;28;19947;-69
2023/09/10 05:32:52;;;;;;;;;;;;;;;17.70;47.98;100044.38;3155986;28;20045;-67
2023/09/10 05:34:24;;;;;;;;;;;;;;;17.74;48.04;100040.56;3147026;28;20652;-73
2023/09/10 05:35:55;;;;;;;;;;;;;;;17.83;48.02;100045.19;3136504;28;19929;-70
2023/09/10 05:37:26;;;;;;;;;;;;;;;17.93;47.76;100046.22;3144206;28;19926;-64
2023/09/10 05:38:57;;;;;;;;;;;;;;;18.04;47.68;100045.44;3145005;28;19925;-68
2023/09/10 05:40:29;;;;;;;;;;;;;;;18.16;47.55;100044.56;3145279;28;19924;-76
2023/09/10 05:41:59;;;;;;;;;;;;;;;18.33;47.46;100045.13;3145061;28;19925;-65
2023/09/10 05:43:31;;;;;;;;;;;;;;;18.49;47.26;100045.69;3150067;28;19924;-67
2023/09/10 05:45:03;;;;;;;;;;;;;;;18.68;47.04;100045.13;3157652;28;19924;-67
2023/09/10 05:46:35;;;;;;;;;;;;;;;18.83;46.83;100048.44;3157729;28;20409;-63
2023/09/10 05:48:05;;;;;;;;;;;;;;;18.97;46.51;100050.91;3157789;28;20035;-63
2023/09/10 05:49:37;;;;;;;;;;;;;;;19.10;46.38;100058.69;3156004;28;19931;-61
2023/09/10 05:51:08;;;;;;;;;;;;;;;19.23;46.14;100061.25;3139906;28;19931;-73
2023/09/10 05:52:39;;;;;;;;;;;;;;;19.30;46.16;100054.53;3145282;28;19924;-72
2023/09/10 05:54:10;;;;;;;;;;;;;;;19.37;45.98;100050.44;3157752;28;19931;-66
2023/09/10 05:55:42;;;;;;;;;;;;;;;19.45;45.90;100055.16;3145790;28;19950;-67
2023/09/10 05:57:12;;;;;;;;;;;;;;;19.52;45.68;100056.34;3144832;28;19931;-68
2023/09/10 05:58:44;;;;;;;;;;;;;;;19.57;45.79;100054.19;3155012;28;19928;-75
2023/09/10 06:00:17;;;;;;;;;;;;;;;19.65;45.55;100051.81;3147860;28;19925;-68
2023/09/10 06:01:48;;;;;;;;;;;;;;;19.78;45.48;100041.94;3141342;28;19932;-67
2023/09/10 06:03:19;;;;;;;;;;;;;;;19.90;45.17;100052.50;3152688;28;20409;-67
2023/09/10 06:04:50;;;;;;;;;;;;;;;19.95;45.02;100047.69;3150044;28;19924;-67
2023/09/10 06:06:21;;;;;;;;;;;;;;;20.02;44.81;100056.78;3149534;28;20373;-66
2023/09/10 06:07:52;;;;;;;;;;;;;;;20.11;44.76;100057.84;3157461;28;19924;-72
2023/09/10 06:09:23;;;;;;;;;;;;;;;20.12;44.55;100056.91;3157685;28;19932;-81
2023/09/10 06:10:54;;;;;;;;;;;;;;;20.14;44.80;100058.47;3157368;28;19931;-69
2023/09/10 06:12:25;;;;;;;;;;;;;;;20.17;44.70;100062.66;3157693;28;19996;-67
2023/09/10 06:13:56;;;;;;;;;;;;;;;20.19;44.53;100061.56;3157699;28;20401;-70
2023/09/10 06:15:29;;;;;;;;;;;;;;;20.25;44.44;100056.75;3155485;28;20061;-70
2023/09/10 06:17:00;;;;;;;;;;;;;;;20.30;44.40;100065.16;3145654;28;20317;-70
2023/09/10 06:18:31;;;;;;;;;;;;;;;20.33;44.28;100060.44;3157481;28;19931;-75
2023/09/10 06:20:03;;;;;;;;;;;;;;;20.43;44.22;100069.28;3144425;28;19925;-69
2023/09/10 06:21:35;;;;;;;;;;;;;;;20.53;44.15;100069.44;3144743;28;19924;-73
2023/09/10 06:23:07;;;;;;;;;;;;;;;20.60;43.77;100061.81;3148401;28;20032;-71
2023/09/10 06:24:37;;;;;;;;;;;;;;;20.69;43.62;100063.69;3149128;28;19924;-72
2023/09/10 06:26:09;;;;;;;;;;;;;;;20.76;43.64;100064.03;3146951;28;19989;-73
2023/09/10 06:27:39;;;;;;;;;;;;;;;20.82;43.66;100067.00;3155006;28;19928;-73
2023/09/10 06:29:11;;;;;;;;;;;;;;;20.89;43.34;100064.69;3145741;28;19949;-72
2023/09/10 06:30:43;;;;;;;;;;;;;;;20.98;43.29;100073.66;3149085;28;20379;-72
2023/09/10 06:32:15;;;;;;;;;;;;;;;21.08;43.38;100072.75;3146313;28;19931;-72
2023/09/10 06:33:46;;;;;;;;;;;;;;;21.23;43.24;100077.69;3146649;28;19925;-70
2023/09/10 06:35:17;;;;;;;;;;;;;;;21.34;43.03;100074.97;3149087;28;19932;-73
2023/09/10 06:36:48;;;;;;;;;;;;;;;21.45;42.79;100064.34;3157444;28;19946;-73
2023/09/10 06:38:19;;;;;;;;;;;;;;;21.58;42.90;100069.41;3146474;28;20324;-74
2023/09/10 06:39:51;;;;;;;;;;;;;;;21.71;42.77;100067.38;3147314;28;19925;-72
2023/09/10 06:41:22;;;;;;;;;;;;;;;21.79;42.48;100075.47;3157764;28;19924;-76
2023/09/10 06:42:53;;;;;;;;;;;;;;;21.89;42.46;100075.53;3159339;28;20415;-74
2023/09/10 06:44:24;;;;;;;;;;;;;;;21.99;42.23;100071.06;3157833;28;19924;-78
2023/09/10 06:45:59;;;;;;;;;;;;;;;22.14;42.03;100073.34;3156003;28;20329;-72
2023/09/10 06:47:30;;;;;;;;;;;;;;;22.31;41.96;100066.56;3151376;28;19943;-68
2023/09/10 06:49:02;;;;;;;;;;;;;;;22.49;41.75;100072.84;3147040;28;19929;-67
2023/09/10 06:50:33;;;;;;;;;;;;;;;22.65;41.47;100081.06;3142929;28;19935;-69
2023/09/10 06:52:05;;;;;;;;;;;;;;;22.85;41.30;100065.97;3147986;28;20309;-67
2023/09/10 06:53:36;;;;;;;;;;;;;;;23.05;41.31;100066.00;3159618;28;19931;-65
2023/09/10 06:55:07;;;;;;;;;;;;;;;23.20;41.38;100069.88;3146954;28;19978;-65
2023/09/10 06:56:38;;;;;;;;;;;;;;;23.44;41.10;100071.19;3146745;28;19924;-67
2023/09/10 06:58:09;;;;;;;;;;;;;;;23.72;41.27;100069.41;3158179;28;19939;-70
2023/09/10 06:59:40;;;;;;;;;;;;;;;24.05;40.66;100071.50;3158279;28;19924;-68
2023/09/10 07:01:18;;;;;;;;;;;;;;;24.36;40.30;100067.63;3146967;28;19929;-67
2023/09/10 07:02:50;;;;;;;;;;;;;;;24.59;39.79;100071.53;3146677;28;19939;-68
2023/09/10 07:04:21;;;;;;;;;;;;;;;24.71;39.67;100074.81;3150607;28;19928;-67
2023/09/10 07:05:53;;;;;;;;;;;;;;;24.77;39.55;100063.53;3151046;28;19972;-67
2023/09/10 07:07:23;;;;;;;;;;;;;;;24.83;39.34;100062.09;3146753;28;19928;-68
2023/09/10 07:08:55;;;;;;;;;;;;;;;24.86;39.24;100067.94;3147868;28;20436;-70
2023/09/10 07:10:25;;;;;;;;;;;;;;;25.08;39.26;100074.59;3157993;28;20328;-71
2023/09/10 07:11:57;;;;;;;;;;;;;;;25.40;38.53;100067.81;3158809;28;19928;-69
2023/09/10 07:13:29;;;;;;;;;;;;;;;25.79;38.21;100064.66;3145851;28;19955;-70
2023/09/10 07:15:00;;;;;;;;;;;;;;;26.21;38.30;100067.31;3150634;28;19997;-70
2023/09/10 07:16:33;;;;;;;;;;;;;;;26.60;37.68;100072.06;3145969;28;19935;-70
2023/09/10 07:18:05;;;;;;;;;;;;;;;27.02;37.26;100067.53;3143067;28;19933;-70
2023/09/10 07:19:35;;;;;;;;;;;;;;;27.38;36.47;100070.66;3152578;28;19924;-70
2023/09/10 07:21:07;;;;;;;;;;;;;;;27.68;36.27;100058.34;3155498;28;20393;-70
2023/09/10 07:22:37;;;;;;;;;;;;;;;27.95;35.67;100061.59;3151031;28;19924;-69
2023/09/10 07:24:09;;;;;;;;;;;;;;;28.30;35.63;100060.22;3146372;28;19925;-69
2023/09/10 07:25:40;;;;;;;;;;;;;;;28.55;34.71;100067.09;3152281;28;19928;-69
2023/09/10 07:27:11;;;;;;;;;;;;;;;28.89;34.58;100062.28;3158339;28;19938;-68
2023/09/10 07:28:42;;;;;;;;;;;;;;;29.22;34.23;100062.81;3159299;28;19928;-69
2023/09/10 07:30:13;;;;;;;;;;;;;;;29.46;33.71;100062.56;3149039;28;19925;-69
2023/09/10 07:31:45;;;;;;;;;;;;;;;29.67;33.26;100064.53;3157893;28;19932;-69
2023/09/10 07:33:17;;;;;;;;;;;;;;;29.88;33.30;100057.53;3147479;28;19964;-69
2023/09/10 07:34:47;;;;;;;;;;;;;;;30.14;32.83;100065.91;3149880;28;19954;-69
2023/09/10 07:36:19;;;;;;;;;;;;;;;30.24;31.75;100054.88;3135105;28;20474;-69
2023/09/10 07:37:51;;;;;;;;;;;;;;;30.10;31.55;100064.59;3135667;28;19971;-69
2023/09/10 07:39:23;;;;;;;;;;;;;;;30.23;31.38;100060.41;3144673;28;19928;-68
2023/09/10 07:40:53;;;;;;;;;;;;;;;30.32;30.57;100062.81;3156845;28;19970;-68
2023/09/10 07:42:25;;;;;;;;;;;;;;;30.43;30.82;100056.06;3159156;28;20340;-68
2023/09/10 07:43:55;;;;;;;;;;;;;;;30.71;30.48;100052.63;3150596;28;19928;-68
2023/09/10 07:45:27;;;;;;;;;;;;;;;31.04;30.56;100052.91;3153533;28;20439;-69
2023/09/10 07:47:00;;;;;;;;;;;;;;;31.40;30.01;100058.09;3151982;28;19925;-68
2023/09/10 07:48:30;;;;;;;;;;;;;;;31.66;29.45;100053.91;3152499;28;19958;-70
2023/09/10 07:50:02;;;;;;;;;;;;;;;31.75;29.41;100055.38;3157425;28;20010;-69
2023/09/10 07:51:32;;;;;;;;;;;;;;;31.81;29.02;100065.34;3138720;28;19924;-70